Time;durP1;ratioP1;P1;durP2;ratioP2;P2;SDS_P1;SDS_P2;PMS_P1;PMS_P2;Temp;Humidity;BMP_temperature;BMP_pressure;BME280_temperature;BME280_humidity;BME280_pressure;Samples;Min_cycle;Max_cycle;Signal;HPM_P1;HPM_P2
2021/07/01 00:02:14;;;;;;;2.50;0.85;;;;;;;23.43;43.73;100240.50;5093845;28;20039;-67
2021/07/01 00:04:59;;;;;;;5.72;0.80;;;;;;;23.26;43.84;100233.16;5092044;28;20106;-67
2021/07/01 00:07:46;;;;;;;3.58;0.60;;;;;;;23.31;43.80;100233.50;5073305;28;20067;-67
2021/07/01 00:10:31;;;;;;;1.38;0.52;;;;;;;23.20;43.75;100229.25;5100176;28;20039;-67
2021/07/01 00:13:16;;;;;;;1.98;0.70;;;;;;;23.12;44.19;100233.28;5093261;28;20498;-69
2021/07/01 00:16:01;;;;;;;1.58;0.57;;;;;;;22.93;43.74;100227.16;5095812;28;20059;-68
2021/07/01 00:18:46;;;;;;;2.38;0.60;;;;;;;23.17;43.79;100230.88;5092194;28;20050;-67
2021/07/01 00:21:31;;;;;;;2.15;0.88;;;;;;;23.20;42.87;100235.59;5091212;28;20399;-68
2021/07/01 00:24:16;;;;;;;0.90;0.50;;;;;;;23.07;43.79;100228.19;5096856;28;20101;-68
2021/07/01 00:27:01;;;;;;;2.78;0.70;;;;;;;22.88;42.85;100227.59;5092959;28;20047;-68
2021/07/01 00:29:46;;;;;;;5.93;0.60;;;;;;;22.96;44.25;100229.09;5092003;28;20442;-68
2021/07/01 00:32:31;;;;;;;5.78;0.60;;;;;;;23.01;43.80;100239.72;5096727;28;20094;-70
2021/07/01 00:35:17;;;;;;;3.83;0.57;;;;;;;22.99;44.19;100236.59;5094067;28;20047;-68
2021/07/01 00:38:03;;;;;;;0.90;0.47;;;;;;;23.20;43.54;100232.81;5082790;28;20058;-69
2021/07/01 00:40:47;;;;;;;2.90;0.60;;;;;;;23.37;42.52;100233.81;5088308;28;20431;-66
2021/07/01 00:43:32;;;;;;;3.22;1.15;;;;;;;23.26;42.28;100231.16;5095320;28;20407;-66
2021/07/01 00:46:18;;;;;;;5.10;0.93;;;;;;;23.13;43.25;100232.09;5078330;28;20043;-65
2021/07/01 00:49:03;;;;;;;2.33;0.68;;;;;;;23.15;43.45;100226.94;5075565;28;20055;-68
2021/07/01 00:51:49;;;;;;;0.73;0.30;;;;;;;23.19;43.21;100227.69;5097248;28;20043;-69
2021/07/01 00:54:35;;;;;;;2.92;0.63;;;;;;;23.23;42.99;100222.88;5086015;28;20051;-68
2021/07/01 00:57:21;;;;;;;2.20;0.60;;;;;;;22.93;42.96;100218.03;5093708;28;20051;-69
2021/07/01 01:00:26;;;;;;;0.77;0.40;;;;;;;23.07;43.59;100226.22;5093925;28;20066;-67
2021/07/01 01:03:11;;;;;;;2.00;0.68;;;;;;;23.11;43.29;100229.72;5091464;28;20510;-69
2021/07/01 01:05:57;;;;;;;1.45;0.57;;;;;;;23.20;42.97;100223.72;5096058;28;20047;-68
2021/07/01 01:08:43;;;;;;;4.32;1.13;;;;;;;23.05;43.01;100220.31;5076925;28;20046;-68
2021/07/01 01:11:28;;;;;;;4.10;0.50;;;;;;;22.82;43.51;100225.66;5092596;28;20047;-68
2021/07/01 01:14:21;;;;;;;1.23;0.43;;;;;;;22.72;43.85;100224.56;5095432;28;20063;-66
2021/07/01 01:17:12;;;;;;;2.42;0.68;;;;;;;22.90;43.47;100233.53;5073750;28;20043;-68
2021/07/01 01:19:58;;;;;;;2.78;0.47;;;;;;;23.05;43.05;100223.09;5074963;28;20039;-67
2021/07/01 01:22:43;;;;;;;3.53;0.40;;;;;;;23.04;42.92;100227.03;5077660;28;20043;-67
2021/07/01 01:25:28;;;;;;;3.80;0.68;;;;;;;22.96;42.98;100225.53;5090357;28;20404;-68
2021/07/01 01:28:14;;;;;;;3.60;0.50;;;;;;;23.28;42.72;100230.75;5091406;28;20051;-67
2021/07/01 01:30:59;;;;;;;1.40;0.57;;;;;;;23.25;42.61;100226.84;5076185;28;20118;-68
2021/07/01 01:33:46;;;;;;;2.33;0.75;;;;;;;22.96;43.36;100237.41;5071439;28;20055;-66
2021/07/01 01:36:30;;;;;;;2.13;0.57;;;;;;;22.90;43.68;100227.97;5078847;28;20067;-67
2021/07/01 01:39:19;;;;;;;2.42;0.60;;;;;;;22.61;44.17;100227.41;5098671;28;20051;-67
2021/07/01 01:42:13;;;;;;;5.63;0.90;;;;;;;22.39;43.79;100234.31;5083016;28;20047;-67
2021/07/01 01:44:58;;;;;;;3.88;0.40;;;;;;;22.07;45.04;100228.19;5083285;28;20063;-66
2021/07/01 01:47:47;;;;;;;5.03;0.88;;;;;;;22.14;45.66;100223.41;5080185;28;20506;-67
2021/07/01 01:50:33;;;;;;;5.22;0.40;;;;;;;22.29;45.07;100223.31;5098624;28;20111;-67
2021/07/01 01:53:18;;;;;;;1.77;0.52;;;;;;;22.38;45.05;100224.41;5098422;28;20047;-67
2021/07/01 01:56:03;;;;;;;8.02;0.60;;;;;;;22.54;44.62;100224.69;5091744;28;20043;-66
2021/07/01 01:58:52;;;;;;;2.60;0.60;;;;;;;22.74;44.29;100224.97;5076925;28;20048;-68
2021/07/01 02:01:55;;;;;;;6.68;0.68;;;;;;;22.72;44.23;100224.56;5091640;28;20047;-67
2021/07/01 02:04:53;;;;;;;8.55;1.30;;;;;;;22.59;43.76;100226.25;5082900;28;20058;-65
2021/07/01 02:07:41;;;;;;;7.07;0.80;;;;;;;22.59;43.91;100229.00;5080418;28;20062;-68
2021/07/01 02:10:29;;;;;;;9.10;0.85;;;;;;;22.46;44.21;100225.13;5082713;28;20047;-67
2021/07/01 02:13:14;;;;;;;5.28;0.70;;;;;;;22.41;44.42;100214.50;5097879;28;20043;-66
2021/07/01 02:16:19;;;;;;;1.60;0.55;;;;;;;22.47;44.74;100218.41;5097397;28;20047;-66
2021/07/01 02:19:04;;;;;;;8.00;0.70;;;;;;;22.70;44.56;100224.19;5091684;28;20066;-67
2021/07/01 02:21:49;;;;;;;2.35;0.57;;;;;;;22.82;44.51;100228.44;5098179;28;20047;-66
2021/07/01 02:24:35;;;;;;;6.95;0.70;;;;;;;22.77;44.50;100226.91;5082873;28;20058;-66
2021/07/01 02:27:21;;;;;;;6.72;0.80;;;;;;;22.68;44.92;100231.31;5096243;28;20051;-66
2021/07/01 02:30:10;;;;;;;6.65;0.68;;;;;;;22.54;45.31;100232.22;5082958;28;20447;-65
2021/07/01 02:32:56;;;;;;;33.03;1.23;;;;;;;22.58;45.35;100233.78;5097960;28;20047;-67
2021/07/01 02:35:43;;;;;;;1.88;0.73;;;;;;;22.54;45.68;100232.22;5082886;28;20118;-67
2021/07/01 02:38:46;;;;;;;5.82;0.90;;;;;;;22.56;45.25;100240.91;5091875;28;20051;-69
2021/07/01 02:41:35;;;;;;;5.20;0.65;;;;;;;22.58;44.81;100244.84;5086379;28;20047;-68
2021/07/01 02:44:20;;;;;;;2.38;0.50;;;;;;;22.59;44.60;100240.91;5101524;28;20051;-68
2021/07/01 02:47:24;;;;;;;12.95;1.50;;;;;;;22.18;45.06;100243.56;5094775;28;20055;-70
2021/07/01 02:50:13;;;;;;;3.78;0.75;;;;;;;21.95;45.21;100251.59;5086052;28;20046;-69
2021/07/01 02:52:58;;;;;;;7.30;0.80;;;;;;;21.92;45.80;100252.38;5065916;28;20067;-68
2021/07/01 02:55:45;;;;;;;4.03;0.68;;;;;;;21.74;46.98;100240.56;5083603;28;20051;-69
2021/07/01 02:58:30;;;;;;;5.50;1.27;;;;;;;21.38;47.61;100250.22;5080595;28;20051;-68
2021/07/01 03:01:36;;;;;;;8.75;1.70;;;;;;;20.77;48.88;100252.25;5077501;28;20055;-66
2021/07/01 03:04:40;;;;;;;3.40;0.65;;;;;;;20.98;50.06;100254.22;5080086;28;20455;-68
2021/07/01 03:07:25;;;;;;;4.95;0.82;;;;;;;20.42;51.52;100245.50;5078534;28;20102;-68
2021/07/01 03:10:10;;;;;;;10.30;1.30;;;;;;;20.65;50.28;100255.41;5081903;28;20407;-67
2021/07/01 03:13:18;;;;;;;7.35;1.67;;;;;;;20.47;50.34;100247.88;5093773;28;20035;-68
2021/07/01 03:16:03;;;;;;;5.47;1.10;;;;;;;20.41;51.37;100249.47;5096036;28;20047;-68
2021/07/01 03:18:49;;;;;;;6.45;1.75;;;;;;;20.16;51.40;100254.13;5108877;28;20074;-67
2021/07/01 03:21:53;;;;;;;4.78;1.08;;;;;;;19.77;52.98;100250.44;5073298;28;20064;-68
2021/07/01 03:24:41;;;;;;;3.03;1.00;;;;;;;20.16;52.54;100242.31;5096954;28;20423;-68
2021/07/01 03:27:54;;;;;;;2.42;0.77;;;;;;;20.42;51.48;100250.25;5084645;28;20043;-67
2021/07/01 03:30:40;;;;;;;2.38;0.90;;;;;;;20.62;51.18;100256.97;5098454;28;20059;-67
2021/07/01 03:33:25;;;;;;;8.30;0.80;;;;;;;20.72;50.70;100260.94;5088434;28;20043;-67
2021/07/01 03:36:11;;;;;;;7.65;1.40;;;;;;;20.79;51.47;100258.16;5094305;28;20039;-67
2021/07/01 03:39:15;;;;;;;4.38;0.82;;;;;;;20.68;51.55;100260.13;5092736;28;20063;-67
2021/07/01 03:42:22;;;;;;;10.73;1.23;;;;;;;20.86;51.35;100258.16;5093941;28;20519;-66
2021/07/01 03:45:07;;;;;;;1.98;0.82;;;;;;;21.01;50.54;100254.19;5096499;28;20153;-67
2021/07/01 03:47:53;;;;;;;17.60;1.60;;;;;;;21.03;50.17;100256.59;5065777;28;20052;-67
2021/07/01 03:50:39;;;;;;;12.00;0.88;;;;;;;21.04;49.46;100258.13;5092639;28;20047;-66
2021/07/01 03:53:34;;;;;;;3.67;1.17;;;;;;;20.86;49.44;100258.16;5097720;28;20055;-66
2021/07/01 03:56:21;;;;;;;2.00;0.80;;;;;;;20.97;48.80;100255.41;5081196;28;20411;-67
2021/07/01 03:59:06;;;;;;;1.17;0.60;;;;;;;21.25;48.96;100272.75;5092297;28;20054;-67
2021/07/01 04:02:16;;;;;;;3.85;0.95;;;;;;;21.70;47.38;100276.56;5094095;28;20428;-69
2021/07/01 04:05:01;;;;;;;3.72;0.80;;;;;;;21.67;46.50;100262.75;5095513;28;20055;-69
2021/07/01 04:07:46;;;;;;;1.50;0.60;;;;;;;21.96;46.88;100264.25;5092176;28;20058;-68
2021/07/01 04:10:31;;;;;;;1.83;0.40;;;;;;;22.08;46.59;100258.25;5096757;28;20051;-66
2021/07/01 04:13:18;;;;;;;5.43;0.63;;;;;;;22.39;45.77;100255.69;5094075;28;20043;-67
2021/07/01 04:16:32;;;;;;;3.08;0.68;;;;;;;22.73;44.30;100253.06;5056522;28;20416;-66
2021/07/01 04:19:46;;;;;;;2.45;0.63;;;;;;;22.87;43.49;100258.50;5074299;28;20047;-68
2021/07/01 04:22:49;;;;;;;2.08;0.50;;;;;;;23.18;43.11;100257.41;5083767;28;20047;-67
2021/07/01 04:26:06;;;;;;;5.65;0.70;;;;;;;22.95;43.43;100254.47;5067680;28;20050;-66
2021/07/01 04:28:51;;;;;;;11.77;0.80;;;;;;;22.73;44.04;100248.31;5088157;28;20046;-66
2021/07/01 04:31:37;;;;;;;4.82;0.93;;;;;;;22.86;44.01;100257.72;5083364;28;20051;-69
2021/07/01 04:34:23;;;;;;;4.28;0.85;;;;;;;23.07;43.56;100259.50;5068505;28;20051;-67
2021/07/01 04:37:08;;;;;;;3.47;1.25;;;;;;;23.20;43.07;100265.34;5076361;28;20510;-69
2021/07/01 04:40:06;;;;;;;2.75;0.77;;;;;;;23.18;43.15;100262.16;5093040;28;20047;-66
2021/07/01 04:42:56;;;;;;;2.67;1.02;;;;;;;23.32;43.06;100262.03;5101035;28;20043;-68
2021/07/01 04:45:42;;;;;;;10.68;1.17;;;;;;;23.35;42.92;100263.97;5077708;28;20047;-68
2021/07/01 04:48:27;;;;;;;11.27;1.00;;;;;;;23.43;43.10;100271.81;5083445;28;20051;-69
2021/07/01 04:51:14;;;;;;;4.00;0.98;;;;;;;23.47;42.56;100271.78;5078434;28;20404;-68
2021/07/01 04:54:37;;;;;;;2.63;0.52;;;;;;;23.64;42.46;100272.81;5049954;28;20444;-68
2021/07/01 04:57:45;;;;;;;11.13;0.75;;;;;;;23.69;41.95;100266.78;5041215;28;20044;-68
2021/07/01 05:00:30;;;;;;;5.65;1.10;;;;;;;23.58;41.46;100278.03;5090558;28;20047;-69
2021/07/01 05:03:34;;;;;;;9.63;1.33;;;;;;;23.47;41.56;100265.47;5086523;28;20067;-68
2021/07/01 05:06:19;;;;;;;4.03;0.68;;;;;;;23.53;41.14;100275.69;5078207;28;20043;-69
2021/07/01 05:09:05;;;;;;;3.35;0.93;;;;;;;23.56;41.12;100274.88;5090738;28;20039;-69
2021/07/01 05:11:50;;;;;;;6.22;1.10;;;;;;;23.64;41.01;100278.34;5096648;28;20047;-68
2021/07/01 05:14:37;;;;;;;5.05;0.65;;;;;;;23.74;40.63;100275.44;5079100;28;20511;-68
2021/07/01 05:17:22;;;;;;;2.08;0.60;;;;;;;23.78;40.94;100278.19;5092191;28;20419;-68
2021/07/01 05:20:08;;;;;;;14.02;1.85;;;;;;;23.87;40.97;100278.50;5090869;28;20047;-68
2021/07/01 05:23:03;;;;;;;9.60;1.63;;;;;;;23.90;40.95;100293.50;5105955;28;20059;-69
2021/07/01 05:26:07;;;;;;;11.23;1.83;;;;;;;23.91;41.01;100282.00;5090412;28;20055;-69
2021/07/01 05:29:10;;;;;;;7.20;0.80;;;;;;;23.84;41.50;100285.66;5090095;28;20047;-69
2021/07/01 05:32:14;;;;;;;9.18;1.52;;;;;;;24.05;42.44;100289.34;5089955;28;20047;-68
2021/07/01 05:35:17;;;;;;;29.00;3.60;;;;;;;24.20;42.23;100290.75;5094059;28;20046;-68
2021/07/01 05:38:08;;;;;;;26.08;3.15;;;;;;;24.26;40.77;100295.44;5085125;28;20039;-68
2021/07/01 05:40:54;;;;;;;35.05;3.22;;;;;;;24.27;40.87;100293.47;5076907;28;20051;-70
2021/07/01 05:43:39;;;;;;;13.10;1.55;;;;;;;24.17;40.99;100291.63;5079365;28;20106;-70
2021/07/01 05:46:32;;;;;;;14.63;1.27;;;;;;;24.24;40.82;100289.50;5069333;28;20039;-70
2021/07/01 05:49:17;;;;;;;10.23;1.08;;;;;;;24.34;40.60;100282.22;5085960;28;20114;-71
2021/07/01 05:52:04;;;;;;;9.27;1.15;;;;;;;24.32;40.40;100281.09;5072627;28;20055;-70
2021/07/01 05:54:56;;;;;;;7.25;1.17;;;;;;;24.41;40.08;100279.34;5092160;28;20511;-70
2021/07/01 05:57:41;;;;;;;8.27;1.88;;;;;;;24.50;40.17;100292.72;5094477;28;20063;-70
2021/07/01 06:00:26;;;;;;;16.88;1.85;;;;;;;24.50;40.31;100278.81;5092217;28;20043;-70
2021/07/01 06:03:11;;;;;;;13.88;1.70;;;;;;;24.50;40.76;100289.94;5096325;28;20063;-71
2021/07/01 06:06:10;;;;;;;16.23;1.98;;;;;;;24.28;41.86;100276.34;5078285;28;20043;-71
2021/07/01 06:09:15;;;;;;;19.73;1.52;;;;;;;24.21;41.70;100281.22;5091178;28;20055;-71
2021/07/01 06:12:01;;;;;;;21.00;2.53;;;;;;;24.18;42.11;100276.50;5095253;28;20047;-70
2021/07/01 06:14:46;;;;;;;9.50;1.08;;;;;;;24.28;41.81;100281.91;5095117;28;20067;-70
2021/07/01 06:17:35;;;;;;;9.45;1.45;;;;;;;24.40;41.45;100288.09;5099692;28;20047;-70
2021/07/01 06:20:21;;;;;;;12.15;1.20;;;;;;;24.62;40.89;100289.34;5083072;28;20043;-71
2021/07/01 06:23:06;;;;;;;9.68;1.15;;;;;;;24.65;40.32;100288.50;5097091;28;20047;-69
2021/07/01 06:25:53;;;;;;;4.18;0.80;;;;;;;24.71;40.04;100290.41;5094719;28;20047;-71
2021/07/01 06:28:41;;;;;;;10.63;1.73;;;;;;;24.76;39.97;100293.91;5096639;28;20043;-71
2021/07/01 06:31:26;;;;;;;15.63;1.25;;;;;;;24.87;40.31;100300.09;5096867;28;20051;-71
2021/07/01 06:34:14;;;;;;;9.15;1.00;;;;;;;24.88;40.00;100301.69;5100499;28;20043;-71
2021/07/01 06:37:03;;;;;;;6.20;0.80;;;;;;;24.99;40.21;100302.31;5111914;28;20043;-71
2021/07/01 06:40:09;;;;;;;5.22;1.35;;;;;;;25.09;40.23;100299.31;5093864;28;20043;-70
2021/07/01 06:43:14;;;;;;;4.97;0.70;;;;;;;25.21;39.78;100306.28;5094230;28;20043;-70
2021/07/01 06:46:19;;;;;;;8.02;0.85;;;;;;;25.30;39.65;100308.50;5093836;28;20043;-71
2021/07/01 06:49:29;;;;;;;6.15;1.52;;;;;;;25.39;39.29;100301.19;5093811;28;20426;-72
2021/07/01 06:52:32;;;;;;;9.48;0.77;;;;;;;25.36;38.87;100298.44;5083812;28;20479;-70
2021/07/01 06:55:52;;;;;;;4.10;1.40;;;;;;;25.57;38.75;100308.44;5076712;28;20067;-70
2021/07/01 06:58:49;;;;;;;10.50;1.65;;;;;;;25.61;38.22;100311.94;5088630;28;20043;-70
2021/07/01 07:01:34;;;;;;;10.45;1.00;;;;;;;25.68;38.43;100303.44;5091026;28;20051;-71
2021/07/01 07:04:19;;;;;;;10.40;0.90;;;;;;;25.83;38.26;100310.31;5095301;28;20047;-70
2021/07/01 07:07:05;;;;;;;12.43;1.80;;;;;;;25.90;38.08;100299.03;5092134;28;20067;-72
2021/07/01 07:09:51;;;;;;;10.02;0.95;;;;;;;25.85;38.14;100305.88;5097266;28;20043;-71
2021/07/01 07:12:41;;;;;;;8.50;0.73;;;;;;;25.92;37.63;100316.88;5094150;28;20409;-70
2021/07/01 07:15:32;;;;;;;5.55;1.30;;;;;;;26.04;37.53;100312.66;5094541;28;20047;-70
2021/07/01 07:18:23;;;;;;;9.35;0.60;;;;;;;26.15;36.94;100327.16;5096392;28;20047;-70
2021/07/01 07:21:19;;;;;;;4.03;0.80;;;;;;;26.21;36.70;100325.41;5100723;28;20047;-70
2021/07/01 07:24:04;;;;;;;3.45;0.70;;;;;;;26.17;37.13;100333.06;5100474;28;20399;-71
2021/07/01 07:26:51;;;;;;;3.85;0.82;;;;;;;26.12;37.06;100332.78;5096558;28;20043;-70
2021/07/01 07:29:41;;;;;;;7.32;0.77;;;;;;;26.17;36.53;100323.91;5095080;28;20051;-70
2021/07/01 07:32:28;;;;;;;2.20;0.80;;;;;;;26.31;36.68;100327.22;5098477;28;20039;-70
2021/07/01 07:35:15;;;;;;;5.20;0.57;;;;;;;26.37;36.36;100328.28;5096693;28;20396;-71
2021/07/01 07:38:02;;;;;;;3.83;0.60;;;;;;;26.23;36.26;100322.22;5094154;28;20050;-70
2021/07/01 07:40:52;;;;;;;4.88;0.60;;;;;;;26.41;36.14;100336.59;5097139;28;20514;-70
2021/07/01 07:43:38;;;;;;;3.85;0.50;;;;;;;26.31;36.00;100323.66;5094998;28;20047;-70
2021/07/01 07:46:25;;;;;;;5.93;0.65;;;;;;;26.31;36.02;100321.63;5098952;28;20058;-70
2021/07/01 07:49:10;;;;;;;3.72;0.70;;;;;;;26.46;35.99;100327.72;5093257;28;20051;-70
2021/07/01 07:51:55;;;;;;;6.43;0.90;;;;;;;26.53;35.55;100329.53;5095257;28;20043;-72
2021/07/01 07:54:53;;;;;;;3.08;0.47;;;;;;;26.58;35.33;100329.81;5093118;28;20067;-70
2021/07/01 07:57:39;;;;;;;1.38;0.60;;;;;;;26.60;35.52;100332.16;5096564;28;20051;-71
2021/07/01 08:00:27;;;;;;;1.50;0.60;;;;;;;26.59;35.63;100330.59;5094344;28;20051;-70
2021/07/01 08:03:12;;;;;;;6.15;0.50;;;;;;;26.48;35.71;100325.25;5098250;28;20067;-71
2021/07/01 08:06:02;;;;;;;6.22;0.90;;;;;;;26.33;35.98;100322.00;5095859;28;20055;-70
2021/07/01 08:08:48;;;;;;;3.72;0.50;;;;;;;26.44;35.63;100316.19;5094016;28;20051;-71
2021/07/01 08:11:35;;;;;;;1.48;0.50;;;;;;;26.58;35.85;100318.66;5089767;28;20063;-71
2021/07/01 08:14:21;;;;;;;1.95;0.70;;;;;;;26.29;36.02;100320.50;5089978;28;20039;-71
2021/07/01 08:17:05;;;;;;;4.63;0.75;;;;;;;26.28;36.14;100319.72;5093848;28;20519;-71
2021/07/01 08:19:52;;;;;;;2.05;0.60;;;;;;;26.38;35.97;100310.34;5098133;28;20051;-70
2021/07/01 08:22:38;;;;;;;4.18;0.80;;;;;;;26.55;35.42;100313.16;5095957;28;20051;-70
2021/07/01 08:25:24;;;;;;;10.20;1.25;;;;;;;26.62;35.31;100315.75;5093920;28;20063;-70
2021/07/01 08:28:10;;;;;;;5.45;0.60;;;;;;;26.35;35.98;100300.06;5095499;28;20515;-71
2021/07/01 08:30:58;;;;;;;2.13;1.20;;;;;;;26.13;36.46;100309.28;5095863;28;20411;-70
2021/07/01 08:33:48;;;;;;;3.03;0.70;;;;;;;26.23;36.27;100302.72;5093731;28;20510;-71
2021/07/01 08:36:35;;;;;;;2.45;0.88;;;;;;;26.33;35.91;100302.47;5091827;28;20047;-71
2021/07/01 08:39:21;;;;;;;5.93;0.85;;;;;;;26.51;35.68;100309.66;5094328;28;20051;-71
2021/07/01 08:42:12;;;;;;;6.78;0.93;;;;;;;26.60;35.29;100307.06;5097780;28;20047;-70
2021/07/01 08:45:07;;;;;;;2.15;0.95;;;;;;;26.52;35.64;100305.63;5095931;28;20039;-70
2021/07/01 08:47:59;;;;;;;4.55;0.77;;;;;;;26.49;35.99;100312.09;5092171;28;20047;-70
2021/07/01 08:50:54;;;;;;;3.85;0.75;;;;;;;26.53;35.77;100308.00;5097476;28;20055;-70
2021/07/01 08:54:14;;;;;;;6.88;0.68;;;;;;;26.68;35.63;100308.44;5094700;28;20043;-70
2021/07/01 08:57:02;;;;;;;7.15;1.80;;;;;;;26.76;35.21;100302.28;5090706;28;20047;-70
2021/07/01 08:59:58;;;;;;;6.18;1.48;;;;;;;26.79;35.24;100304.19;5094709;28;20055;-70
2021/07/01 09:02:53;;;;;;;15.38;1.50;;;;;;;26.83;35.56;100301.31;5092554;28;20462;-71
2021/07/01 09:05:39;;;;;;;11.50;1.70;;;;;;;26.94;35.20;100307.44;5095888;28;20047;-70
2021/07/01 09:08:30;;;;;;;8.82;1.08;;;;;;;26.99;35.25;100309.72;5094576;28;20519;-70
2021/07/01 09:11:17;;;;;;;8.70;1.00;;;;;;;26.99;35.12;100311.72;5097406;28;20059;-72
2021/07/01 09:14:08;;;;;;;7.10;1.17;;;;;;;26.91;35.37;100311.13;5095406;28;20089;-72
2021/07/01 09:16:54;;;;;;;6.80;1.08;;;;;;;26.92;35.48;100307.09;5093397;28;20051;-70
2021/07/01 09:19:40;;;;;;;7.28;1.20;;;;;;;26.88;35.55;100308.41;5097860;28;20388;-71
2021/07/01 09:22:26;;;;;;;10.75;1.55;;;;;;;26.93;35.16;100308.66;5095612;28;20051;-72
2021/07/01 09:25:12;;;;;;;4.85;1.27;;;;;;;26.92;35.30;100306.31;5093662;28;20043;-71
2021/07/01 09:27:58;;;;;;;3.92;0.90;;;;;;;26.93;35.48;100300.28;5095356;28;20055;-71
2021/07/01 09:30:43;;;;;;;5.78;1.48;;;;;;;27.00;35.40;100305.69;5095640;28;20051;-71
2021/07/01 09:33:29;;;;;;;7.50;1.00;;;;;;;26.91;35.35;100302.75;5093821;28;20059;-70
2021/07/01 09:36:15;;;;;;;2.88;1.00;;;;;;;26.97;35.51;100303.00;5091498;28;20118;-70
2021/07/01 09:39:01;;;;;;;18.05;1.42;;;;;;;27.07;35.56;100302.72;5091691;28;20059;-70
2021/07/01 09:41:46;;;;;;;5.20;1.10;;;;;;;27.18;35.06;100303.22;5091772;28;20055;-71
2021/07/01 09:44:35;;;;;;;4.72;1.58;;;;;;;27.15;35.27;100304.13;5086060;28;20036;-71
2021/07/01 09:47:29;;;;;;;5.03;1.10;;;;;;;27.22;35.10;100303.94;5089403;28;20107;-71
2021/07/01 09:50:15;;;;;;;6.85;1.05;;;;;;;27.35;35.19;100303.19;5094426;28;20051;-71
2021/07/01 09:53:02;;;;;;;10.32;2.65;;;;;;;27.39;34.99;100296.28;5099224;28;20039;-72
2021/07/01 09:55:51;;;;;;;4.00;1.15;;;;;;;27.39;34.62;100295.50;5095857;28;20043;-71
2021/07/01 09:58:42;;;;;;;6.93;1.10;;;;;;;27.41;34.82;100301.44;5094550;28;20050;-70
2021/07/01 10:01:31;;;;;;;6.57;1.98;;;;;;;27.32;34.96;100295.72;5097083;28;20035;-72
2021/07/01 10:04:16;;;;;;;5.68;1.50;;;;;;;27.26;35.28;100292.66;5080722;28;20078;-71
2021/07/01 10:07:09;;;;;;;4.97;1.33;;;;;;;27.40;34.92;100292.28;5100735;28;20407;-71
2021/07/01 10:09:57;;;;;;;13.68;1.20;;;;;;;27.36;35.17;100299.19;5097606;28;20047;-72
2021/07/01 10:12:53;;;;;;;15.70;2.05;;;;;;;27.38;34.79;100294.72;5096646;28;20039;-71
2021/07/01 10:15:39;;;;;;;20.88;2.25;;;;;;;27.34;35.11;100293.25;5093381;28;20526;-71
2021/07/01 10:18:26;;;;;;;8.70;1.20;;;;;;;27.35;35.47;100292.03;5094719;28;20047;-70
2021/07/01 10:21:15;;;;;;;12.55;1.30;;;;;;;27.41;35.34;100296.66;5095091;28;20043;-71
2021/07/01 10:24:12;;;;;;;10.43;1.27;;;;;;;27.40;35.50;100294.28;5099597;28;20040;-69
2021/07/01 10:26:59;;;;;;;4.47;1.48;;;;;;;27.26;35.89;100303.84;5096521;28;20039;-70
2021/07/01 10:29:43;;;;;;;8.10;1.20;;;;;;;27.44;35.63;100286.59;5091632;28;20046;-70
2021/07/01 10:32:36;;;;;;;6.68;1.30;;;;;;;27.45;35.79;100299.34;5099125;28;20047;-71
2021/07/01 10:35:24;;;;;;;10.85;1.48;;;;;;;27.38;35.86;100300.31;5096693;28;20621;-70
2021/07/01 10:38:12;;;;;;;5.65;1.55;;;;;;;27.26;36.18;100284.28;5092852;28;20050;-70
2021/07/01 10:40:59;;;;;;;10.32;1.88;;;;;;;27.45;36.09;100299.34;5097852;28;20051;-71
2021/07/01 10:43:47;;;;;;;9.32;2.00;;;;;;;27.61;35.26;100296.53;5093735;28;20047;-71
2021/07/01 10:46:45;;;;;;;9.02;1.75;;;;;;;27.72;35.46;100291.44;5093037;28;20059;-72
2021/07/01 10:49:33;;;;;;;5.90;1.27;;;;;;;27.82;35.55;100290.34;5097536;28;20046;-72
2021/07/01 10:52:18;;;;;;;6.75;1.48;;;;;;;27.93;35.21;100290.81;5094791;28;20051;-71
2021/07/01 10:55:04;;;;;;;9.13;1.95;;;;;;;27.85;35.50;100274.69;5093529;28;20071;-71
2021/07/01 10:57:56;;;;;;;8.57;1.48;;;;;;;27.90;36.17;100280.50;5095601;28;20047;-70
2021/07/01 11:00:43;;;;;;;6.63;1.73;;;;;;;27.86;36.26;100279.84;5094323;28;20066;-70
2021/07/01 11:03:32;;;;;;;8.80;1.55;;;;;;;27.90;35.87;100280.50;5097077;28;20043;-71
2021/07/01 11:06:17;;;;;;;9.05;1.55;;;;;;;27.83;36.07;100280.75;5096298;28;20043;-72
2021/07/01 11:09:09;;;;;;;5.50;1.10;;;;;;;27.92;35.65;100278.06;5091196;28;20526;-70
2021/07/01 11:12:02;;;;;;;7.85;2.00;;;;;;;27.84;35.97;100275.91;5098192;28;20047;-72
2021/07/01 11:14:49;;;;;;;28.98;3.05;;;;;;;27.82;35.58;100279.16;5094127;28;20047;-72
2021/07/01 11:17:36;;;;;;;8.32;1.52;;;;;;;27.92;36.12;100278.06;5093399;28;20050;-72
2021/07/01 11:20:22;;;;;;;7.55;1.70;;;;;;;27.87;35.58;100267.44;5098526;28;20050;-72
2021/07/01 11:23:07;;;;;;;10.70;1.50;;;;;;;27.98;35.08;100281.88;5094527;28;20412;-72
2021/07/01 11:25:52;;;;;;;6.18;1.48;;;;;;;28.03;35.02;100277.75;5093752;28;20047;-71
2021/07/01 11:28:38;;;;;;;2.95;1.27;;;;;;;28.15;34.56;100276.22;5094260;28;20054;-71
2021/07/01 11:31:37;;;;;;;8.30;1.45;;;;;;;28.17;34.86;100265.38;5078826;28;20217;-72
2021/07/01 11:34:38;;;;;;;8.95;1.90;;;;;;;28.37;35.12;100268.75;5092316;28;20035;-71
2021/07/01 11:37:42;;;;;;;17.50;3.03;;;;;;;28.42;35.15;100260.56;5094977;28;20110;-71
2021/07/01 11:40:26;;;;;;;6.90;2.60;;;;;;;28.49;34.71;100268.75;5092074;28;20047;-70
2021/07/01 11:43:13;;;;;;;27.77;2.50;;;;;;;28.58;34.87;100262.47;5096481;28;20419;-71
2021/07/01 11:45:59;;;;;;;5.88;1.63;;;;;;;28.49;34.47;100260.34;5095407;28;20051;-71
2021/07/01 11:48:49;;;;;;;13.80;1.90;;;;;;;28.44;33.61;100246.16;5091458;28;20423;-70
2021/07/01 11:51:35;;;;;;;8.27;1.58;;;;;;;28.34;34.93;100272.44;5092029;28;20411;-70
2021/07/01 11:54:22;;;;;;;4.65;1.60;;;;;;;28.42;34.68;100259.78;5099665;28;20043;-72
2021/07/01 11:57:07;;;;;;;7.40;1.90;;;;;;;28.39;34.43;100255.84;5091758;28;20047;-71
2021/07/01 11:59:53;;;;;;;4.40;1.25;;;;;;;28.36;34.59;100250.38;5096459;28;20391;-72
2021/07/01 12:02:39;;;;;;;14.93;1.70;;;;;;;28.36;33.25;100255.97;5095283;28;20051;-72
2021/07/01 12:05:24;;;;;;;5.70;1.08;;;;;;;28.43;33.86;100244.56;5091026;28;20047;-72
2021/07/01 12:08:11;;;;;;;6.18;2.17;;;;;;;28.38;34.01;100254.31;5093958;28;20110;-72
2021/07/01 12:11:00;;;;;;;6.65;1.33;;;;;;;28.33;33.43;100257.66;5095087;28;20046;-72
2021/07/01 12:13:45;;;;;;;6.07;1.52;;;;;;;28.44;32.89;100246.91;5091220;28;20059;-72
2021/07/01 12:16:40;;;;;;;4.30;1.50;;;;;;;28.40;33.75;100248.25;5080498;28;20507;-72
2021/07/01 12:19:46;;;;;;;5.90;1.65;;;;;;;28.19;34.51;100244.09;5095442;28;20039;-71
2021/07/01 12:22:48;;;;;;;6.43;1.70;;;;;;;28.23;34.87;100241.22;5098412;28;20047;-70
2021/07/01 12:25:33;;;;;;;3.88;1.77;;;;;;;28.35;34.55;100248.81;5094170;28;20043;-72
2021/07/01 12:28:27;;;;;;;11.88;2.42;;;;;;;28.33;34.95;100249.28;5092982;28;20042;-72
2021/07/01 12:31:22;;;;;;;8.23;1.48;;;;;;;28.37;34.73;100260.34;5094265;28;20047;-70
2021/07/01 12:34:09;;;;;;;6.65;1.27;;;;;;;28.29;34.97;100245.03;5092149;28;20043;-71
2021/07/01 12:37:00;;;;;;;12.65;2.30;;;;;;;28.26;35.62;100251.50;5096605;28;20043;-71
2021/07/01 12:39:47;;;;;;;5.43;1.77;;;;;;;28.29;35.42;100239.44;5093586;28;20047;-72
2021/07/01 12:42:39;;;;;;;3.65;1.27;;;;;;;28.30;35.36;100240.97;5092219;28;20523;-72
2021/07/01 12:45:31;;;;;;;9.07;1.35;;;;;;;28.24;35.78;100240.75;5095093;28;20043;-71
2021/07/01 12:48:39;;;;;;;4.03;1.40;;;;;;;28.17;36.11;100241.00;5093353;28;20043;-71
2021/07/01 12:52:01;;;;;;;9.90;1.67;;;;;;;28.23;35.99;100235.63;5087976;28;20524;-71
2021/07/01 12:54:46;;;;;;;9.68;1.88;;;;;;;28.26;36.12;100243.13;5093820;28;20434;-72
2021/07/01 12:57:31;;;;;;;10.07;1.50;;;;;;;28.14;36.09;100244.66;5089925;28;20047;-70
2021/07/01 13:00:16;;;;;;;5.93;1.92;;;;;;;28.19;36.00;100251.75;5092939;28;20047;-71
2021/07/01 13:03:03;;;;;;;8.65;1.50;;;;;;;28.38;35.60;100245.13;5096954;28;20051;-72
2021/07/01 13:05:54;;;;;;;6.15;1.73;;;;;;;28.43;35.56;100231.38;5095187;28;20044;-72
2021/07/01 13:08:39;;;;;;;10.63;1.60;;;;;;;28.54;35.57;100250.63;5092350;28;20051;-72
2021/07/01 13:11:25;;;;;;;3.85;1.42;;;;;;;28.36;35.91;100244.78;5097132;28;20063;-72